createdAt,value
2019-06-20T00:01:26.495Z,21.70
2019-06-20T00:03:54.139Z,21.70
2019-06-20T00:06:21.802Z,21.60
2019-06-20T00:08:49.522Z,21.60
2019-06-20T00:11:17.232Z,21.50
2019-06-20T00:13:44.990Z,21.60
2019-06-20T00:16:12.626Z,21.60
2019-06-20T00:18:40.271Z,21.30
2019-06-20T00:21:07.963Z,20.90
2019-06-20T00:23:35.618Z,20.90
2019-06-20T00:26:03.488Z,21.10
2019-06-20T00:28:31.223Z,21.20
2019-06-20T00:30:58.878Z,21.30
2019-06-20T00:33:26.522Z,21.40
2019-06-20T00:35:54.193Z,21.50
2019-06-20T00:38:21.911Z,21.50
2019-06-20T00:40:49.554Z,21.50
2019-06-20T00:43:18.380Z,21.50
2019-06-20T00:45:46.259Z,21.60
2019-06-20T00:48:13.894Z,21.40
2019-06-20T00:50:41.555Z,21.20
2019-06-20T00:53:10.112Z,20.90
2019-06-20T00:55:37.759Z,20.80
2019-06-20T00:58:05.506Z,20.60
2019-06-20T01:03:19.351Z,20.70
2019-06-20T01:05:48.208Z,20.70
2019-06-20T01:08:15.856Z,20.50
2019-06-20T01:10:43.500Z,20.50
2019-06-20T01:13:11.126Z,20.60
2019-06-20T01:15:38.906Z,20.70
2019-06-20T01:18:06.671Z,20.70
2019-06-20T01:20:34.297Z,20.80
2019-06-20T01:23:01.988Z,20.80
2019-06-20T01:25:41.036Z,20.50
2019-06-20T01:28:09.653Z,20.40
2019-06-20T01:30:37.939Z,20.30
2019-06-20T01:33:06.250Z,20.40
2019-06-20T01:35:34.015Z,20.50
2019-06-20T01:38:01.916Z,20.50
2019-06-20T01:40:29.568Z,20.50
2019-06-20T01:42:57.203Z,20.40
2019-06-20T01:45:24.887Z,20.30
2019-06-20T01:47:52.536Z,20.30
2019-06-20T01:50:20.230Z,20.10
2019-06-20T01:52:47.959Z,19.90
2019-06-20T01:55:15.776Z,20.00
2019-06-20T01:57:43.466Z,20.10
2019-06-20T02:00:13.099Z,20.10
2019-06-20T02:02:40.830Z,20.10
2019-06-20T02:05:08.592Z,20.10
2019-06-20T02:07:36.295Z,20.20
2019-06-20T02:10:05.999Z,20.10
2019-06-20T02:12:33.764Z,19.90
2019-06-20T02:15:01.448Z,19.90
2019-06-20T02:17:29.226Z,19.80
2019-06-20T02:19:56.879Z,19.70
2019-06-20T02:22:24.503Z,19.60
2019-06-20T02:24:52.191Z,19.70
2019-06-20T02:27:20.995Z,19.70
2019-06-20T02:29:48.644Z,19.80
2019-06-20T02:32:16.385Z,19.80
2019-06-20T02:34:44.095Z,19.60
2019-06-20T02:37:11.807Z,19.50
2019-06-20T02:39:39.559Z,19.50
2019-06-20T02:42:08.737Z,19.40
2019-06-20T02:44:36.463Z,19.40
2019-06-20T02:47:04.284Z,19.30
2019-06-20T02:49:31.923Z,19.20
2019-06-20T02:51:59.723Z,19.10
2019-06-20T02:54:28.989Z,19.00
2019-06-20T02:56:56.639Z,18.90
2019-06-20T02:59:24.371Z,18.80
2019-06-20T03:01:52.050Z,18.80
2019-06-20T03:04:19.795Z,18.90
2019-06-20T03:06:47.543Z,19.00
2019-06-20T03:09:15.521Z,19.00
2019-06-20T03:11:43.238Z,18.90
2019-06-20T03:14:10.946Z,18.90
2019-06-20T03:16:38.630Z,18.80
2019-06-20T03:19:06.371Z,18.90
2019-06-20T03:21:34.063Z,19.00
2019-06-20T03:24:01.736Z,18.90
2019-06-20T03:26:29.472Z,19.10
2019-06-20T03:28:57.183Z,18.90
2019-06-20T03:31:24.873Z,18.70
2019-06-20T03:33:52.589Z,18.70
2019-06-20T03:36:20.318Z,18.60
2019-06-20T03:38:48.976Z,18.80
2019-06-20T03:41:16.612Z,18.70
2019-06-20T03:43:44.251Z,18.60
2019-06-20T03:46:11.922Z,18.60
2019-06-20T03:48:39.644Z,18.80
2019-06-20T03:51:07.371Z,18.80
2019-06-20T03:53:35.097Z,18.80
2019-06-20T03:56:02.748Z,18.80
2019-06-20T03:58:30.390Z,18.60
2019-06-20T04:00:58.146Z,18.60
2019-06-20T04:03:25.780Z,18.70
2019-06-20T04:05:53.503Z,18.90
2019-06-20T04:08:21.178Z,18.90
2019-06-20T04:10:48.840Z,18.90
2019-06-20T04:13:16.592Z,18.70
2019-06-20T04:15:44.341Z,18.90
2019-06-20T04:18:12.046Z,18.90
2019-06-20T04:20:39.691Z,18.90
2019-06-20T04:23:08.893Z,18.90
2019-06-20T04:25:36.613Z,18.90
2019-06-20T04:28:04.327Z,18.80
2019-06-20T04:30:32.008Z,18.80
2019-06-20T04:32:59.710Z,18.70
2019-06-20T04:35:27.421Z,18.60
2019-06-20T04:37:55.109Z,18.70
2019-06-20T04:40:22.817Z,18.60
2019-06-20T04:42:50.532Z,18.60
2019-06-20T04:45:31.416Z,18.50
2019-06-20T04:47:47.735Z,18.50
2019-06-20T04:50:15.389Z,18.60
2019-06-20T04:52:43.163Z,18.50
2019-06-20T04:55:11.247Z,18.60
2019-06-20T04:57:38.889Z,18.70
2019-06-20T05:00:07.817Z,18.80
2019-06-20T05:02:35.535Z,18.80
2019-06-20T05:05:05.311Z,18.90
2019-06-20T05:07:33.206Z,19.00
2019-06-20T05:10:00.902Z,19.00
2019-06-20T05:12:28.539Z,18.90
2019-06-20T05:14:56.902Z,19.00
2019-06-20T05:17:24.542Z,19.10
2019-06-20T05:19:52.660Z,19.00
2019-06-20T05:22:20.408Z,19.00
2019-06-20T05:24:48.052Z,19.00
2019-06-20T05:27:15.792Z,19.00
2019-06-20T05:29:43.503Z,19.00
2019-06-20T05:32:12.153Z,19.10
2019-06-20T05:34:39.870Z,19.00
2019-06-20T05:37:07.931Z,19.10
2019-06-20T05:39:35.570Z,19.10
2019-06-20T05:42:03.355Z,19.20
2019-06-20T05:44:31.032Z,19.30
2019-06-20T05:47:11.926Z,19.20
2019-06-20T05:49:28.056Z,19.20
2019-06-20T05:51:55.775Z,19.30
2019-06-20T05:54:23.434Z,19.40
2019-06-20T05:56:51.088Z,19.50
2019-06-20T05:59:18.767Z,19.40
2019-06-20T06:01:46.993Z,19.40
2019-06-20T06:04:15.746Z,19.50
2019-06-20T06:06:43.411Z,19.50
2019-06-20T06:09:11.051Z,19.50
2019-06-20T06:11:38.695Z,19.50
2019-06-20T06:14:06.377Z,19.50
2019-06-20T06:16:34.081Z,19.60
2019-06-20T06:19:01.722Z,19.70
2019-06-20T06:21:29.515Z,19.70
2019-06-20T06:23:57.224Z,19.90
2019-06-20T06:26:24.869Z,19.90
2019-06-20T06:28:52.607Z,20.10
2019-06-20T06:31:20.247Z,20.10
2019-06-20T06:33:47.887Z,20.10
2019-06-20T06:36:15.566Z,20.10
2019-06-20T06:38:43.276Z,20.00
2019-06-20T06:41:10.919Z,20.00
2019-06-20T06:43:42.076Z,20.10
2019-06-20T06:46:07.979Z,20.10
2019-06-20T06:48:35.768Z,20.20
2019-06-20T06:51:03.667Z,20.20
2019-06-20T06:53:31.301Z,20.30
2019-06-20T06:55:58.946Z,20.30
2019-06-20T06:58:26.694Z,20.30
2019-06-20T07:00:54.587Z,20.40
2019-06-20T07:03:22.235Z,20.50
2019-06-20T07:05:49.957Z,20.50
2019-06-20T07:08:17.674Z,20.60
2019-06-20T07:10:45.324Z,20.70
2019-06-20T07:13:13.048Z,20.70
2019-06-20T07:15:40.687Z,20.70
2019-06-20T07:18:08.333Z,20.70
2019-06-20T07:20:36.016Z,20.80
2019-06-20T07:23:03.723Z,20.80
2019-06-20T07:25:31.386Z,20.90
2019-06-20T07:27:59.104Z,20.90
2019-06-20T07:30:26.835Z,20.90
2019-06-20T07:32:54.556Z,21.00
2019-06-20T07:35:22.283Z,21.10
2019-06-20T07:37:49.934Z,21.00
2019-06-20T07:40:17.708Z,21.10
2019-06-20T07:42:45.443Z,21.20
2019-06-20T07:45:14.219Z,21.20
2019-06-20T07:47:41.984Z,21.30
2019-06-20T07:50:10.342Z,21.40
2019-06-20T07:52:37.981Z,21.50
2019-06-20T07:55:07.536Z,21.70
2019-06-20T07:57:35.267Z,21.80
2019-06-20T08:00:06.072Z,21.90
2019-06-20T08:02:34.384Z,21.90
2019-06-20T08:05:02.299Z,21.90
2019-06-20T08:07:30.106Z,21.90
2019-06-20T08:09:57.855Z,22.10
2019-06-20T08:12:26.438Z,22.10
2019-06-20T08:14:54.088Z,22.30
2019-06-20T08:17:34.837Z,22.50
2019-06-20T08:19:51.114Z,22.50
2019-06-20T08:22:18.758Z,22.60
2019-06-20T08:24:46.402Z,22.80
2019-06-20T08:27:14.955Z,22.90
2019-06-20T08:29:42.893Z,23.10
2019-06-20T08:32:10.582Z,23.10
2019-06-20T08:34:38.254Z,23.30
2019-06-20T08:37:06.418Z,23.40
2019-06-20T08:39:34.187Z,23.40
2019-06-20T08:42:02.136Z,23.50
2019-06-20T08:44:29.870Z,23.50
2019-06-20T08:46:59.385Z,23.60
2019-06-20T08:49:27.038Z,23.60
2019-06-20T08:51:56.207Z,23.70
2019-06-20T08:54:24.187Z,23.70
2019-06-20T08:56:51.879Z,23.80
2019-06-20T08:59:24.313Z,23.90
2019-06-20T09:01:48.891Z,23.80
2019-06-20T09:04:16.627Z,23.90
2019-06-20T09:06:44.264Z,23.90
2019-06-20T09:09:12.007Z,23.90
2019-06-20T09:11:39.708Z,24.00
2019-06-20T09:14:07.371Z,24.00
2019-06-20T09:16:35.087Z,24.10
2019-06-20T09:19:02.910Z,24.30
2019-06-20T09:21:30.561Z,24.40
2019-06-20T09:23:59.918Z,24.50
2019-06-20T09:26:27.739Z,24.60
2019-06-20T09:28:55.663Z,24.70
2019-06-20T09:31:23.417Z,24.80
2019-06-20T09:33:52.100Z,24.80
2019-06-20T09:36:20.513Z,24.90
2019-06-20T09:38:48.234Z,25.00
2019-06-20T09:41:15.999Z,25.10
2019-06-20T09:43:43.706Z,25.20
2019-06-20T09:46:11.358Z,25.30
2019-06-20T09:48:39.033Z,25.50
2019-06-20T09:51:06.676Z,25.60
2019-06-20T09:53:34.428Z,25.70
2019-06-20T09:56:02.128Z,25.70
2019-06-20T09:58:29.858Z,25.70
2019-06-20T10:00:57.639Z,25.70
2019-06-20T10:03:25.323Z,25.50
2019-06-20T10:05:52.999Z,25.50
2019-06-20T10:08:20.679Z,25.40
2019-06-20T10:10:49.304Z,25.40
2019-06-20T10:13:17.715Z,25.30
2019-06-20T10:15:46.688Z,25.30
2019-06-20T10:18:14.771Z,25.30
2019-06-20T10:20:42.481Z,25.40
2019-06-20T10:23:10.199Z,25.50
2019-06-20T10:25:38.301Z,25.70
2019-06-20T10:28:07.551Z,25.90
2019-06-20T10:30:35.190Z,26.10
2019-06-20T10:33:02.850Z,26.20
2019-06-20T10:35:30.488Z,26.20
2019-06-20T10:37:58.122Z,26.10
2019-06-20T10:40:26.046Z,26.00
2019-06-20T10:42:54.346Z,26.00
2019-06-20T10:45:23.840Z,25.90
2019-06-20T10:47:52.923Z,26.00
2019-06-20T10:50:20.994Z,26.10
2019-06-20T10:52:50.005Z,26.10
2019-06-20T10:55:18.456Z,26.10
2019-06-20T10:57:46.747Z,26.10
2019-06-20T11:00:29.749Z,26.20
2019-06-20T11:02:47.057Z,26.20
2019-06-20T11:05:16.794Z,26.30
2019-06-20T11:07:45.658Z,26.30
2019-06-20T11:10:15.658Z,26.50
2019-06-20T11:12:52.175Z,26.50
2019-06-20T11:15:13.370Z,26.70
2019-06-20T11:17:41.934Z,26.80
2019-06-20T11:20:10.739Z,26.90
2019-06-20T11:22:39.781Z,26.80
2019-06-20T11:25:08.650Z,26.70
2019-06-20T11:27:37.661Z,26.60
2019-06-20T11:30:17.810Z,26.50
2019-06-20T11:32:45.798Z,26.50
2019-06-20T11:35:13.618Z,26.40
2019-06-20T11:37:42.285Z,26.30
2019-06-20T11:40:12.286Z,26.20
2019-06-20T11:42:40.012Z,26.20
2019-06-20T11:45:08.279Z,26.40
2019-06-20T11:47:36.631Z,26.60
2019-06-20T11:50:06.411Z,26.70
2019-06-20T11:52:38.811Z,26.70
2019-06-20T11:55:06.003Z,26.70
2019-06-20T11:57:33.645Z,26.70
2019-06-20T12:00:01.284Z,26.60
2019-06-20T12:02:28.979Z,26.70
2019-06-20T12:04:57.345Z,26.70
2019-06-20T12:07:24.974Z,26.60
2019-06-20T12:09:52.638Z,26.60
2019-06-20T12:12:21.211Z,26.70
2019-06-20T12:14:48.910Z,26.80
2019-06-20T12:17:16.577Z,27.10
2019-06-20T12:19:44.633Z,27.20
2019-06-20T12:22:12.350Z,27.40
2019-06-20T12:24:41.270Z,27.60
2019-06-20T12:27:09.454Z,27.60
2019-06-20T12:29:37.732Z,27.50
2019-06-20T12:32:09.793Z,27.40
2019-06-20T12:34:35.995Z,27.20
2019-06-20T12:37:03.631Z,27.10
2019-06-20T12:39:31.295Z,27.00
2019-06-20T12:41:59.008Z,26.90
2019-06-20T12:44:26.642Z,26.80
2019-06-20T12:46:54.332Z,26.70
2019-06-20T12:49:24.036Z,26.60
2019-06-20T12:51:51.886Z,26.50
2019-06-20T12:54:19.582Z,26.50
2019-06-20T12:56:48.284Z,26.50
2019-06-20T12:59:16.039Z,26.50
2019-06-20T13:01:46.543Z,26.40
2019-06-20T13:04:13.090Z,26.30
2019-06-20T13:06:42.193Z,26.20
2019-06-20T13:09:10.082Z,26.10
2019-06-20T13:11:39.123Z,26.10
2019-06-20T13:14:07.152Z,26.00
2019-06-20T13:16:34.816Z,25.80
2019-06-20T13:19:02.455Z,25.70
2019-06-20T13:21:30.098Z,25.10
2019-06-20T13:23:57.846Z,24.50
2019-06-20T13:26:25.567Z,24.00
2019-06-20T13:29:03.268Z,23.60
2019-06-20T13:31:22.732Z,23.40
2019-06-20T13:33:50.847Z,23.20
2019-06-20T13:36:18.488Z,23.00
2019-06-20T13:38:46.713Z,22.70
2019-06-20T13:41:14.460Z,22.60
2019-06-20T13:43:42.180Z,22.40
2019-06-20T13:46:09.930Z,22.60
2019-06-20T13:48:38.903Z,22.70
2019-06-20T13:51:07.019Z,23.00
2019-06-20T13:53:34.755Z,23.00
2019-06-20T13:56:02.601Z,23.40
2019-06-20T13:58:30.267Z,23.50
2019-06-20T14:00:58.083Z,23.70
2019-06-20T14:03:25.723Z,23.70
2019-06-20T14:05:53.894Z,23.30
2019-06-20T14:08:21.553Z,23.00
2019-06-20T14:10:49.820Z,22.90
2019-06-20T14:13:19.431Z,22.80
2019-06-20T14:15:48.449Z,22.60
2019-06-20T14:18:16.310Z,22.60
2019-06-20T14:20:44.901Z,22.40
2019-06-20T14:23:12.691Z,22.30
2019-06-20T14:25:40.334Z,22.30
2019-06-20T14:28:09.019Z,22.40
2019-06-20T14:30:36.680Z,22.30
2019-06-20T14:33:04.383Z,22.20
2019-06-20T14:35:32.102Z,22.10
2019-06-20T14:38:00.729Z,21.90
2019-06-20T14:40:28.411Z,21.80
2019-06-20T14:42:56.046Z,21.30
2019-06-20T14:45:23.784Z,21.00
2019-06-20T14:47:52.686Z,20.80
2019-06-20T14:50:22.025Z,20.80
2019-06-20T14:52:51.743Z,20.80
2019-06-20T14:55:20.823Z,20.90
2019-06-20T14:57:50.222Z,20.80
2019-06-20T15:00:19.819Z,21.00
2019-06-20T15:02:51.801Z,21.00
2019-06-20T15:05:18.361Z,21.20
2019-06-20T15:07:47.346Z,21.50
2019-06-20T15:10:17.232Z,21.60
2019-06-20T15:12:46.437Z,21.70
2019-06-20T15:15:15.384Z,21.90
2019-06-20T15:17:43.135Z,21.90
2019-06-20T15:20:13.286Z,22.10
2019-06-20T15:22:41.411Z,22.20
2019-06-20T15:25:09.212Z,22.40
2019-06-20T15:27:36.912Z,22.60
2019-06-20T15:30:06.313Z,22.70
2019-06-20T15:32:33.968Z,22.70
2019-06-20T15:35:01.981Z,22.80
2019-06-20T15:37:29.860Z,22.80
2019-06-20T15:39:57.574Z,22.80
2019-06-20T15:42:25.222Z,22.90
2019-06-20T15:44:53.790Z,22.90
2019-06-20T15:47:21.510Z,22.90
2019-06-20T15:49:49.146Z,22.90
2019-06-20T15:52:16.898Z,23.00
2019-06-20T15:54:44.571Z,22.90
2019-06-20T15:57:13.805Z,23.00
2019-06-20T15:59:42.268Z,23.00
2019-06-20T16:02:10.119Z,23.00
2019-06-20T16:04:39.007Z,23.10
2019-06-20T16:07:06.749Z,23.10
2019-06-20T16:09:36.035Z,23.20
2019-06-20T16:12:03.921Z,23.40
2019-06-20T16:14:31.670Z,23.30
2019-06-20T16:16:59.320Z,23.20
2019-06-20T16:19:26.963Z,23.30
2019-06-20T16:21:54.718Z,23.10
2019-06-20T16:24:22.488Z,23.00
2019-06-20T16:26:50.350Z,22.80
2019-06-20T16:29:18.023Z,22.50
2019-06-20T16:31:45.681Z,22.40
2019-06-20T16:34:13.390Z,22.30
2019-06-20T16:36:41.128Z,22.30
2019-06-20T16:39:08.923Z,22.10
2019-06-20T16:41:36.698Z,22.10
2019-06-20T16:44:04.931Z,22.00
2019-06-20T16:46:32.647Z,21.90
2019-06-20T16:49:00.355Z,21.80
2019-06-20T16:51:28.122Z,21.70
2019-06-20T16:53:55.862Z,21.60
2019-06-20T16:56:24.327Z,21.60
2019-06-20T16:58:52.078Z,21.50
2019-06-20T17:01:19.720Z,21.50
2019-06-20T17:03:47.362Z,21.40
2019-06-20T17:06:15.096Z,21.30
2019-06-20T17:08:42.758Z,21.30
2019-06-20T17:11:10.451Z,21.20
2019-06-20T17:13:38.167Z,21.10
2019-06-20T17:16:05.877Z,21.00
2019-06-20T17:18:33.603Z,21.00
2019-06-20T17:21:01.426Z,21.00
2019-06-20T17:23:29.075Z,21.00
2019-06-20T17:25:56.711Z,20.90
2019-06-20T17:28:24.374Z,20.80
2019-06-20T17:30:52.020Z,20.80
2019-06-20T17:33:19.663Z,20.80
2019-06-20T17:35:47.417Z,20.70
2019-06-20T17:38:15.190Z,20.60
2019-06-20T17:40:42.909Z,20.50
2019-06-20T17:43:10.594Z,20.50
2019-06-20T17:45:38.238Z,20.50
2019-06-20T17:48:05.974Z,20.40
2019-06-20T17:50:33.639Z,20.40
2019-06-20T17:53:01.370Z,20.40
2019-06-20T17:55:29.954Z,20.40
2019-06-20T17:57:57.614Z,20.40
2019-06-20T18:00:25.603Z,20.40
2019-06-20T18:02:53.404Z,20.40
2019-06-20T18:05:21.229Z,20.30
2019-06-20T18:07:49.618Z,20.30
2019-06-20T18:10:17.872Z,20.20
2019-06-20T18:12:45.605Z,20.30
2019-06-20T18:15:13.987Z,20.30
2019-06-20T18:17:41.634Z,20.20
2019-06-20T18:20:11.650Z,20.20
2019-06-20T18:22:39.389Z,20.20
2019-06-20T18:25:07.700Z,20.20
2019-06-20T18:27:35.448Z,20.10
2019-06-20T18:30:06.176Z,20.10
2019-06-20T18:32:33.928Z,20.00
2019-06-20T18:35:02.592Z,20.00
2019-06-20T18:37:31.881Z,20.00
2019-06-20T18:39:59.731Z,19.90
2019-06-20T18:42:27.516Z,19.80
2019-06-20T18:44:55.178Z,19.90
2019-06-20T18:47:22.886Z,19.90
2019-06-20T18:49:50.964Z,19.90
2019-06-20T18:52:18.671Z,19.80
2019-06-20T18:54:46.346Z,19.70
2019-06-20T18:57:14.063Z,19.70
2019-06-20T18:59:41.764Z,19.70
2019-06-20T19:02:09.424Z,19.70
2019-06-20T19:04:48.040Z,19.70
2019-06-20T19:07:06.707Z,19.70
2019-06-20T19:09:34.566Z,19.70
2019-06-20T19:12:02.373Z,19.60
2019-06-20T19:14:30.078Z,19.60
2019-06-20T19:16:57.786Z,19.60
2019-06-20T19:19:25.457Z,19.50
2019-06-20T19:21:53.513Z,19.60
2019-06-20T19:24:22.775Z,19.50
2019-06-20T19:26:50.587Z,19.50
2019-06-20T19:29:18.241Z,19.60
2019-06-20T19:31:45.898Z,19.50
2019-06-20T19:34:13.637Z,19.50
2019-06-20T19:36:41.283Z,19.60
2019-06-20T19:39:08.925Z,19.60
2019-06-20T19:41:36.682Z,19.50
2019-06-20T19:44:05.457Z,19.50
2019-06-20T19:46:33.234Z,19.50
2019-06-20T19:49:00.963Z,19.50
2019-06-20T19:51:28.675Z,19.50
2019-06-20T19:53:56.318Z,19.30
2019-06-20T19:56:24.134Z,19.40
2019-06-20T19:58:53.319Z,19.30
2019-06-20T20:01:20.992Z,19.30
2019-06-20T20:03:49.633Z,19.20
2019-06-20T20:06:17.418Z,19.20
2019-06-20T20:08:45.071Z,19.10
2019-06-20T20:11:12.810Z,19.20
2019-06-20T20:13:40.457Z,19.10
2019-06-20T20:16:08.211Z,19.10
2019-06-20T20:18:35.930Z,19.20
2019-06-20T20:21:03.766Z,19.20
2019-06-20T20:23:31.439Z,19.40
2019-06-20T20:25:59.109Z,19.30
2019-06-20T20:28:26.814Z,19.40
2019-06-20T20:30:54.451Z,19.40
2019-06-20T20:33:22.110Z,19.40
2019-06-20T20:35:49.769Z,19.40
2019-06-20T20:38:17.488Z,19.50
2019-06-20T20:40:45.310Z,19.50
2019-06-20T20:43:12.994Z,19.50
2019-06-20T20:45:41.695Z,19.40
2019-06-20T20:48:09.378Z,19.40
2019-06-20T20:50:37.018Z,19.40
2019-06-20T20:53:05.019Z,19.40
2019-06-20T20:55:32.820Z,19.30
2019-06-20T20:58:00.462Z,19.30
2019-06-20T21:00:34.059Z,19.30
2019-06-20T21:03:02.176Z,19.40
2019-06-20T21:05:30.751Z,19.30
2019-06-20T21:07:58.416Z,19.40
2019-06-20T21:10:26.271Z,19.30
2019-06-20T21:12:53.967Z,19.30
2019-06-20T21:15:21.963Z,19.30
2019-06-20T21:17:49.691Z,19.10
2019-06-20T21:20:18.079Z,19.20
2019-06-20T21:22:46.069Z,19.20
2019-06-20T21:25:14.544Z,19.10
2019-06-20T21:27:42.250Z,19.20
2019-06-20T21:30:11.895Z,19.20
2019-06-20T21:32:39.560Z,19.10
2019-06-20T21:35:08.917Z,19.20
2019-06-20T21:37:36.847Z,19.20
2019-06-20T21:40:05.798Z,19.30
2019-06-20T21:42:33.585Z,19.20
2019-06-20T21:45:01.355Z,19.20
2019-06-20T21:47:29.019Z,19.00
2019-06-20T21:49:56.794Z,19.00
2019-06-20T21:52:25.081Z,19.00
2019-06-20T21:54:52.819Z,19.00
2019-06-20T21:57:21.471Z,19.00
2019-06-20T21:59:49.179Z,19.00
2019-06-20T22:02:16.918Z,19.00
2019-06-20T22:04:54.119Z,19.00
2019-06-20T22:07:14.082Z,19.00
2019-06-20T22:09:41.738Z,19.00
2019-06-20T22:12:10.924Z,19.00
2019-06-20T22:14:38.683Z,19.00
2019-06-20T22:17:06.357Z,18.90
2019-06-20T22:19:33.999Z,19.00
2019-06-20T22:22:01.641Z,18.90
2019-06-20T22:24:29.428Z,18.90
2019-06-20T22:26:57.067Z,18.80
2019-06-20T22:29:24.703Z,18.90
2019-06-20T22:31:52.665Z,18.80
2019-06-20T22:34:20.404Z,18.80
2019-06-20T22:36:48.104Z,18.70
2019-06-20T22:39:15.838Z,18.50
2019-06-20T22:41:43.488Z,18.50
2019-06-20T22:44:11.147Z,18.50
2019-06-20T22:46:38.878Z,18.50
2019-06-20T22:49:06.694Z,18.60
2019-06-20T22:51:34.354Z,18.50
2019-06-20T22:54:02.083Z,18.50
2019-06-20T22:56:29.771Z,18.50
2019-06-20T22:58:57.425Z,18.60
2019-06-20T23:01:25.274Z,18.60
2019-06-20T23:03:52.951Z,18.70
2019-06-20T23:06:20.600Z,18.70
2019-06-20T23:08:48.408Z,18.70
2019-06-20T23:11:16.053Z,18.70
2019-06-20T23:13:43.785Z,18.60
2019-06-20T23:16:11.545Z,18.60
2019-06-20T23:18:39.208Z,18.70
2019-06-20T23:21:06.898Z,18.70
2019-06-20T23:23:34.577Z,18.70
2019-06-20T23:26:02.214Z,18.60
2019-06-20T23:28:29.856Z,18.60
2019-06-20T23:30:57.567Z,18.60
2019-06-20T23:33:25.239Z,18.60
2019-06-20T23:35:52.883Z,18.70
2019-06-20T23:38:20.569Z,18.70
2019-06-20T23:40:48.202Z,18.70
2019-06-20T23:43:15.847Z,18.80
2019-06-20T23:45:43.964Z,18.70
2019-06-20T23:48:11.604Z,18.70
2019-06-20T23:50:39.248Z,18.70
2019-06-20T23:53:07.067Z,18.70
2019-06-20T23:55:34.784Z,18.60
2019-06-20T23:58:02.496Z,18.60
